Time;durP1;ratioP1;P1;durP2;ratioP2;P2;SDS_P1;SDS_P2;PMS_P1;PMS_P2;Temp;Humidity;BMP_temperature;BMP_pressure;BME280_temperature;BME280_humidity;BME280_pressure;Samples;Min_cycle;Max_cycle;Signal;HPM_P1;HPM_P2
2024/03/26 00:04:00;;;;;;;72.10;45.10;;;;;;;1.82;84.89;97986.25;226521;1268;22566;-78
2024/03/26 00:09:09;;;;;;;80.80;47.80;;;;;;;1.77;85.00;97992.23;226586;1274;22555;-79
2024/03/26 00:14:10;;;;;;;81.30;48.10;;;;;;;1.74;85.14;97988.17;226603;1268;22538;-78
2024/03/26 00:19:12;;;;;;;82.30;48.10;;;;;;;1.71;85.21;97984.63;226477;1271;22594;-77
2024/03/26 00:24:14;;;;;;;82.40;49.10;;;;;;;1.68;85.27;97982.73;226601;1273;22595;-77
2024/03/26 00:29:16;;;;;;;76.90;48.00;;;;;;;1.64;85.37;97980.83;226642;1273;22577;-76
2024/03/26 00:34:18;;;;;;;77.60;47.80;;;;;;;1.60;85.32;97975.86;226622;1274;22545;-76
2024/03/26 00:39:19;;;;;;;78.90;47.10;;;;;;;1.56;85.33;97977.81;226560;1272;22628;-77
2024/03/26 00:44:21;;;;;;;78.00;48.90;;;;;;;1.53;85.44;97975.04;226592;1268;22953;-77
2024/03/26 00:49:23;;;;;;;80.20;50.10;;;;;;;1.49;85.66;97977.02;226402;1273;22707;-77
2024/03/26 00:54:24;;;;;;;79.40;50.80;;;;;;;1.45;85.56;97973.23;226564;1268;22551;-77
2024/03/26 00:59:28;;;;;;;80.10;50.10;;;;;;;1.42;85.88;97975.13;226459;1269;23077;-77
2024/03/26 01:04:30;;;;;;;82.50;50.80;;;;;;;1.36;85.64;97970.79;226583;1272;23053;-77
2024/03/26 01:09:31;;;;;;;73.30;48.70;;;;;;;1.30;85.58;97973.48;226613;1273;22529;-77
2024/03/26 01:14:33;;;;;;;76.30;46.40;;;;;;;1.24;85.70;97967.95;226618;1268;26141;-78
2024/03/26 01:19:35;;;;;;;69.40;44.10;;;;;;;1.22;85.98;97962.84;226581;1260;22560;-77
2024/03/26 01:24:37;;;;;;;64.80;39.80;;;;;;;1.20;85.89;97963.05;226586;1267;22534;-77
2024/03/26 01:29:38;;;;;;;60.70;39.80;;;;;;;1.16;85.82;97963.91;226527;1272;22560;-78
2024/03/26 01:34:40;;;;;;;65.50;41.70;;;;;;;1.12;85.80;97964.66;226596;1271;22569;-78
2024/03/26 01:39:42;;;;;;;62.90;40.20;;;;;;;1.07;86.03;97966.85;226591;1251;22559;-77
2024/03/26 01:44:44;;;;;;;63.20;39.30;;;;;;;1.03;86.07;97974.71;226659;1270;22659;-77
2024/03/26 01:49:46;;;;;;;66.40;40.10;;;;;;;1.00;86.11;97977.10;226562;1270;24262;-77
2024/03/26 01:54:49;;;;;;;64.00;39.40;;;;;;;0.96;86.13;97979.88;226604;1272;22561;-77
2024/03/26 01:59:52;;;;;;;59.90;36.70;;;;;;;0.92;86.09;97979.98;226562;1274;23055;-77
2024/03/26 02:04:53;;;;;;;60.60;39.10;;;;;;;0.86;86.24;97977.55;226611;1269;25336;-77
2024/03/26 02:09:55;;;;;;;60.70;37.00;;;;;;;0.80;86.34;97975.36;226602;1259;22536;-77
2024/03/26 02:14:57;;;;;;;57.10;38.10;;;;;;;0.76;86.01;97982.06;226605;1271;25237;-77
2024/03/26 02:19:59;;;;;;;60.60;37.60;;;;;;;0.69;86.19;97984.41;226580;1269;22544;-77
2024/03/26 02:25:01;;;;;;;63.00;37.70;;;;;;;0.64;86.22;97981.12;226486;1271;22547;-77
2024/03/26 02:30:03;;;;;;;62.80;38.90;;;;;;;0.58;86.15;97979.21;226629;1273;22652;-77
2024/03/26 02:35:06;;;;;;;58.80;38.50;;;;;;;0.55;86.27;97971.77;226458;1272;22576;-77
2024/03/26 02:40:08;;;;;;;62.20;39.40;;;;;;;0.53;86.57;97983.89;226399;1269;25310;-77
2024/03/26 02:45:11;;;;;;;60.60;37.30;;;;;;;0.48;86.15;97980.18;226453;1272;147551;-77
2024/03/26 02:50:12;;;;;;;60.00;37.20;;;;;;;0.42;86.47;97968.83;226427;1274;22677;-77
2024/03/26 02:55:14;;;;;;;82.40;47.80;;;;;;;0.36;86.18;97962.24;226577;1270;22566;-77
2024/03/26 03:00:16;;;;;;;90.30;51.30;;;;;;;0.31;86.42;97961.95;226647;1263;22537;-77
2024/03/26 03:05:18;;;;;;;91.70;55.30;;;;;;;0.25;86.18;97959.84;226546;1252;22553;-77
2024/03/26 03:10:20;;;;;;;90.40;54.50;;;;;;;0.17;86.20;97960.09;226546;1274;25390;-77
2024/03/26 03:15:21;;;;;;;95.20;55.00;;;;;;;0.09;86.37;97955.81;226514;1272;22549;-77
2024/03/26 03:20:23;;;;;;;91.80;53.10;;;;;;;0.02;86.30;97955.61;226468;1270;22542;-77
2024/03/26 03:25:25;;;;;;;82.40;48.00;;;;;;;-0.05;86.48;97954.84;226470;1271;22542;-77
2024/03/26 03:30:27;;;;;;;76.30;46.70;;;;;;;-0.05;86.94;97958.16;226441;1259;22534;-76
2024/03/26 03:35:29;;;;;;;70.10;43.10;;;;;;;0.03;87.15;97956.17;226614;1274;22549;-77
2024/03/26 03:40:30;;;;;;;76.80;46.20;;;;;;;0.09;87.27;97955.84;226513;1271;22738;-76
2024/03/26 03:45:32;;;;;;;72.40;47.10;;;;;;;0.07;86.74;97955.09;226645;1271;22530;-77
2024/03/26 03:50:34;;;;;;;80.60;46.60;;;;;;;0.04;86.74;97952.67;226565;1271;22549;-77
2024/03/26 03:55:36;;;;;;;88.20;50.80;;;;;;;-0.01;86.72;97948.58;226577;1251;22593;-76
2024/03/26 04:00:38;;;;;;;85.30;50.40;;;;;;;-0.06;86.90;97946.98;226635;1271;22531;-77
2024/03/26 04:05:40;;;;;;;88.20;50.20;;;;;;;-0.12;86.80;97948.70;226550;1271;22545;-77
2024/03/26 04:10:43;;;;;;;77.00;45.30;;;;;;;-0.17;86.67;97945.21;226439;1274;22550;-77
2024/03/26 04:15:45;;;;;;;71.60;40.80;;;;;;;-0.20;86.73;97940.71;226545;1274;26215;-76
2024/03/26 04:20:46;;;;;;;68.10;41.00;;;;;;;-0.20;87.17;97938.12;226562;1271;22551;-76
2024/03/26 04:25:58;;;;;;;66.90;39.70;;;;;;;-0.20;86.85;97937.08;226611;1252;22549;-78
2024/03/26 04:31:00;;;;;;;60.90;38.60;;;;;;;-0.24;86.75;97928.77;226502;1274;22538;-79
2024/03/26 04:36:02;;;;;;;54.80;33.70;;;;;;;-0.24;86.82;97928.09;226553;1256;23455;-79
2024/03/26 04:41:03;;;;;;;65.00;38.50;;;;;;;-0.28;86.85;97930.12;226535;1272;22548;-79
2024/03/26 04:46:05;;;;;;;63.20;38.60;;;;;;;-0.33;86.45;97935.51;226638;1266;23131;-79
2024/03/26 04:51:07;;;;;;;65.20;39.30;;;;;;;-0.35;87.02;97932.55;226503;1262;22554;-79
2024/03/26 04:56:09;;;;;;;62.10;40.70;;;;;;;-0.34;87.37;97931.73;226551;1270;23659;-78
2024/03/26 05:01:11;;;;;;;66.60;42.60;;;;;;;-0.31;87.38;97930.31;226603;1272;22599;-79
2024/03/26 05:06:13;;;;;;;72.50;42.90;;;;;;;-0.28;86.97;97927.65;226616;1271;25338;-79
2024/03/26 05:11:15;;;;;;;67.60;43.60;;;;;;;-0.19;87.54;97931.96;226579;1266;23285;-79
2024/03/26 05:16:17;;;;;;;76.20;46.60;;;;;;;-0.06;87.70;97936.42;226481;1256;22550;-79
2024/03/26 05:21:18;;;;;;;71.90;44.80;;;;;;;0.04;87.59;97932.40;226556;1271;22572;-79
2024/03/26 05:26:20;;;;;;;63.20;37.70;;;;;;;0.14;87.35;97939.73;226642;1274;22548;-79
2024/03/26 05:31:23;;;;;;;71.10;42.00;;;;;;;0.24;87.81;97929.50;226604;1259;22546;-78
2024/03/26 05:36:25;;;;;;;72.70;44.30;;;;;;;0.35;87.92;97927.77;226631;1272;22548;-78
2024/03/26 05:41:27;;;;;;;76.50;47.30;;;;;;;0.48;88.03;97930.43;226592;1271;22557;-79
2024/03/26 05:46:31;;;;;;;74.50;45.10;;;;;;;0.63;87.87;97930.20;226618;1271;22537;-79
2024/03/26 05:51:33;;;;;;;71.30;45.30;;;;;;;0.74;87.68;97931.42;226552;1274;22910;-79
2024/03/26 05:56:34;;;;;;;66.00;40.20;;;;;;;0.83;87.47;97931.77;226510;1271;25412;-79
2024/03/26 06:01:36;;;;;;;55.50;38.20;;;;;;;0.97;87.81;97937.33;226477;1272;24259;-79
2024/03/26 06:06:38;;;;;;;65.10;42.70;;;;;;;1.13;87.85;97937.02;226540;1271;22551;-78
2024/03/26 06:11:39;;;;;;;59.40;36.30;;;;;;;1.30;87.91;97940.67;226610;1272;22521;-78
2024/03/26 06:16:41;;;;;;;64.20;42.00;;;;;;;1.49;87.95;97944.40;226540;1271;24866;-78
2024/03/26 06:21:43;;;;;;;55.00;37.80;;;;;;;1.67;87.94;97936.46;226560;1271;22538;-78
2024/03/26 06:26:45;;;;;;;55.10;38.20;;;;;;;1.86;88.00;97934.77;226636;1274;22539;-78
2024/03/26 06:31:47;;;;;;;47.90;33.00;;;;;;;2.07;88.04;97933.15;226509;1269;22566;-78
2024/03/26 06:36:49;;;;;;;42.30;30.50;;;;;;;2.34;88.34;97932.07;226551;1259;22538;-78
2024/03/26 06:41:51;;;;;;;47.70;31.80;;;;;;;2.64;88.58;97930.39;226488;1259;22567;-78
2024/03/26 06:46:54;;;;;;;47.00;31.10;;;;;;;2.98;88.44;97929.44;226296;1274;22556;-78
2024/03/26 06:51:56;;;;;;;38.10;26.60;;;;;;;3.29;88.34;97931.15;226472;1268;22643;-78
2024/03/26 06:56:58;;;;;;;36.10;25.30;;;;;;;3.58;88.01;97931.05;226320;1259;22689;-78
2024/03/26 07:02:03;;;;;;;28.30;21.50;;;;;;;3.87;88.12;97928.71;226373;1263;22574;-78
2024/03/26 07:07:05;;;;;;;25.50;17.90;;;;;;;4.22;87.60;97925.06;226347;1269;23201;-78
2024/03/26 07:12:07;;;;;;;24.90;18.00;;;;;;;4.59;87.23;97921.73;226341;1266;22547;-78
2024/03/26 07:17:09;;;;;;;23.70;17.80;;;;;;;4.92;86.30;97920.17;226201;1253;25363;-73
2024/03/26 07:22:11;;;;;;;21.90;15.70;;;;;;;5.18;85.26;97918.42;226141;1274;24394;-77
2024/03/26 07:27:13;;;;;;;18.90;14.10;;;;;;;5.42;84.75;97912.70;225954;1251;22549;-76
2024/03/26 07:32:14;;;;;;;15.70;12.00;;;;;;;5.72;84.53;97905.80;225882;1257;23056;-76
2024/03/26 07:37:16;;;;;;;13.90;11.50;;;;;;;6.03;83.82;97903.95;226114;1262;22557;-76
2024/03/26 07:42:18;;;;;;;15.40;12.80;;;;;;;6.30;83.06;97899.55;226164;1269;22531;-76
2024/03/26 07:47:20;;;;;;;16.20;12.00;;;;;;;6.53;82.96;97897.77;226087;1256;22542;-76
2024/03/26 07:52:22;;;;;;;13.70;10.30;;;;;;;6.84;81.88;97900.86;226166;1260;22577;-76
2024/03/26 07:57:23;;;;;;;13.60;10.90;;;;;;;7.06;80.77;97892.97;226295;1272;22549;-76
2024/03/26 08:02:25;;;;;;;14.10;9.80;;;;;;;7.22;80.18;97887.55;226304;1271;22546;-76
2024/03/26 08:07:27;;;;;;;15.90;12.80;;;;;;;7.37;78.97;97880.64;226379;1262;24286;-76
2024/03/26 08:12:28;;;;;;;14.00;11.00;;;;;;;7.58;78.90;97874.70;226414;1269;22539;-77
2024/03/26 08:17:31;;;;;;;13.60;11.10;;;;;;;7.75;78.16;97865.71;226335;1255;23884;-75
2024/03/26 08:22:33;;;;;;;10.40;8.30;;;;;;;7.95;78.21;97864.98;226353;1271;22549;-76
2024/03/26 08:27:35;;;;;;;9.70;8.00;;;;;;;8.16;77.40;97856.52;226404;1263;22626;-75
2024/03/26 08:32:36;;;;;;;7.50;6.40;;;;;;;8.34;77.00;97850.19;226380;1256;22562;-74
2024/03/26 08:37:38;;;;;;;8.70;6.80;;;;;;;8.56;75.81;97842.94;226227;1272;25957;-75
2024/03/26 08:42:40;;;;;;;7.50;5.80;;;;;;;8.73;74.80;97839.25;226124;1255;22561;-73
2024/03/26 08:47:42;;;;;;;7.50;4.90;;;;;;;8.86;74.28;97834.06;226062;1266;22484;-73
2024/03/26 08:52:43;;;;;;;5.30;4.50;;;;;;;8.98;73.11;97828.45;225970;1271;22933;-72
2024/03/26 08:57:45;;;;;;;7.60;4.90;;;;;;;9.11;72.42;97820.96;226117;1263;22589;-72
2024/03/26 09:02:47;;;;;;;6.50;4.50;;;;;;;9.30;72.20;97810.73;225916;1262;25276;-73
2024/03/26 09:07:48;;;;;;;5.80;4.30;;;;;;;9.50;71.48;97807.30;225947;1271;24299;-73
2024/03/26 09:12:51;;;;;;;5.50;4.00;;;;;;;9.67;69.94;97800.47;226090;1272;22698;-73
2024/03/26 09:17:53;;;;;;;4.60;3.90;;;;;;;9.80;70.18;97804.73;225983;1256;23915;-73
2024/03/26 09:22:55;;;;;;;5.80;4.20;;;;;;;9.97;69.42;97799.02;225981;1262;22556;-73
2024/03/26 09:27:56;;;;;;;6.30;4.50;;;;;;;10.11;68.91;97802.29;225834;1263;22559;-72
2024/03/26 09:32:59;;;;;;;6.30;4.80;;;;;;;10.30;69.08;97799.31;225941;1258;24842;-73
2024/03/26 09:38:01;;;;;;;7.60;5.00;;;;;;;10.45;68.72;97794.81;226079;1251;22562;-73
2024/03/26 09:43:07;;;;;;;6.70;4.10;;;;;;;10.60;68.44;97783.99;226213;1260;23743;-73
2024/03/26 09:48:11;;;;;;;6.60;3.80;;;;;;;10.77;67.92;97782.06;226232;1259;23352;-73
2024/03/26 09:53:16;;;;;;;6.30;3.70;;;;;;;10.96;67.82;97774.45;226240;1266;22562;-73
2024/03/26 09:58:18;;;;;;;4.30;3.30;;;;;;;11.13;67.04;97774.71;226251;1272;22558;-73
2024/03/26 10:03:20;;;;;;;2.70;2.30;;;;;;;11.29;66.22;97763.89;226295;1268;25279;-74
2024/03/26 10:08:22;;;;;;;3.70;2.80;;;;;;;11.46;66.06;97756.08;226209;1257;22576;-74
2024/03/26 10:13:24;;;;;;;4.40;2.70;;;;;;;11.65;66.32;97759.70;226305;1268;22543;-74
2024/03/26 10:18:27;;;;;;;5.20;2.80;;;;;;;11.82;65.52;97758.04;226273;1251;22532;-74
2024/03/26 10:23:29;;;;;;;4.30;3.30;;;;;;;11.90;64.23;97745.27;226341;1257;22611;-74
2024/03/26 10:28:31;;;;;;;4.40;2.70;;;;;;;12.00;64.58;97742.04;226280;1270;22556;-73
2024/03/26 10:33:35;;;;;;;6.70;2.50;;;;;;;12.14;64.60;97736.73;226317;1274;22930;-73
2024/03/26 10:38:38;;;;;;;3.20;2.20;;;;;;;12.35;64.27;97720.11;226278;1263;22553;-73
2024/03/26 10:43:46;;;;;;;2.60;1.90;;;;;;;12.51;62.83;97720.16;226343;1274;22579;-76
2024/03/26 10:48:50;;;;;;;4.70;1.90;;;;;;;12.68;62.48;97711.84;226233;1274;22562;-73
2024/03/26 10:54:02;;;;;;;3.20;2.00;;;;;;;12.87;62.84;97710.30;226259;1275;22571;-74
2024/03/26 10:59:04;;;;;;;2.70;2.00;;;;;;;13.07;62.41;97713.32;226422;1271;24312;-73
2024/03/26 11:04:07;;;;;;;2.20;1.90;;;;;;;13.17;61.62;97704.66;226657;1267;25746;-74
2024/03/26 11:09:15;;;;;;;2.40;1.60;;;;;;;13.20;61.18;97701.02;226505;1272;22572;-74
2024/03/26 11:14:17;;;;;;;2.00;1.20;;;;;;;13.37;60.67;97692.55;226338;1256;22538;-73
2024/03/26 11:19:21;;;;;;;1.10;1.00;;;;;;;13.56;59.59;97686.20;226174;1255;22546;-73
2024/03/26 11:24:25;;;;;;;2.20;1.40;;;;;;;13.72;59.19;97677.77;226245;1272;24811;-73
2024/03/26 11:29:29;;;;;;;1.80;1.30;;;;;;;13.87;58.78;97682.63;226321;1261;22568;-73
2024/03/26 11:34:31;;;;;;;1.70;1.20;;;;;;;13.99;57.96;97668.94;226225;1254;22554;-73
2024/03/26 11:39:34;;;;;;;1.30;1.20;;;;;;;14.08;56.88;97655.30;226333;1269;24267;-73
2024/03/26 11:44:35;;;;;;;1.80;1.00;;;;;;;14.11;56.33;97648.75;226404;1261;24262;-73
2024/03/26 11:49:37;;;;;;;1.80;1.20;;;;;;;14.16;56.71;97640.52;226409;1251;22538;-74
2024/03/26 11:54:39;;;;;;;2.10;1.10;;;;;;;14.24;55.52;97631.80;226393;1264;22543;-74
2024/03/26 11:59:44;;;;;;;0.90;0.80;;;;;;;14.28;54.67;97622.98;226416;1267;22546;-74
2024/03/26 12:04:46;;;;;;;1.00;0.90;;;;;;;14.38;55.03;97615.41;226487;1271;25408;-74
2024/03/26 12:09:48;;;;;;;1.60;0.80;;;;;;;14.44;53.93;97609.69;226161;1255;22574;-73
2024/03/26 12:14:50;;;;;;;1.50;0.90;;;;;;;14.46;53.83;97604.77;226212;1260;22542;-73
2024/03/26 12:19:52;;;;;;;1.60;1.10;;;;;;;14.46;53.86;97595.09;226389;1269;22578;-73
2024/03/26 12:24:54;;;;;;;1.40;1.10;;;;;;;14.46;53.27;97590.84;226306;1270;23078;-73
2024/03/26 12:29:56;;;;;;;1.90;1.30;;;;;;;14.42;52.99;97585.73;226404;1272;22931;-73
2024/03/26 12:34:59;;;;;;;1.40;1.00;;;;;;;14.41;53.04;97582.67;226412;1260;22543;-74
2024/03/26 12:40:01;;;;;;;4.20;3.70;;;;;;;14.44;53.14;97572.84;226143;1257;23610;-74
2024/03/26 12:45:03;;;;;;;1.70;1.10;;;;;;;14.50;52.60;97565.86;226194;1255;25313;-74
2024/03/26 12:50:05;;;;;;;2.20;1.00;;;;;;;14.53;52.30;97557.93;226250;1251;22578;-75
2024/03/26 12:55:07;;;;;;;0.70;0.70;;;;;;;14.59;52.00;97549.36;226272;1267;22549;-76
2024/03/26 13:00:10;;;;;;;1.80;1.10;;;;;;;14.64;51.39;97540.92;226196;1256;23302;-74
2024/03/26 13:05:13;;;;;;;2.10;1.00;;;;;;;14.70;51.53;97528.84;226090;1260;22545;-75
2024/03/26 13:10:17;;;;;;;1.10;1.00;;;;;;;14.79;51.44;97529.83;226149;1266;22696;-73
2024/03/26 13:15:19;;;;;;;1.30;1.10;;;;;;;14.79;50.49;97523.28;226151;1268;22534;-73
2024/03/26 13:20:21;;;;;;;2.20;1.10;;;;;;;14.77;50.97;97513.20;226110;1260;22541;-75
2024/03/26 13:25:23;;;;;;;3.50;2.50;;;;;;;14.81;50.88;97510.10;226181;1274;22560;-75
2024/03/26 13:30:24;;;;;;;2.70;0.90;;;;;;;14.91;50.63;97506.08;225945;1252;22577;-75
2024/03/26 13:35:38;;;;;;;1.40;0.80;;;;;;;15.10;50.53;97482.11;226016;1267;24712;-74
2024/03/26 13:40:40;;;;;;;1.00;0.70;;;;;;;15.35;49.95;97476.05;226162;1266;22744;-73
2024/03/26 13:45:56;;;;;;;1.30;0.70;;;;;;;15.52;49.43;97464.05;226166;1260;22906;-75
2024/03/26 13:50:58;;;;;;;1.00;0.90;;;;;;;15.69;49.49;97463.05;226214;1253;22576;-74
2024/03/26 13:55:59;;;;;;;2.80;1.00;;;;;;;15.81;49.48;97457.73;226311;1267;22557;-74
2024/03/26 14:01:02;;;;;;;11.10;7.80;;;;;;;15.81;48.81;97442.02;226283;1266;22592;-75
2024/03/26 14:06:04;;;;;;;1.00;0.90;;;;;;;15.73;48.47;97441.30;226348;1270;23354;-74
2024/03/26 14:11:05;;;;;;;0.70;0.70;;;;;;;15.64;48.28;97443.41;226323;1271;22684;-75
2024/03/26 14:16:07;;;;;;;0.90;0.80;;;;;;;15.55;48.17;97433.78;226417;1272;22518;-74
2024/03/26 14:21:09;;;;;;;0.80;0.80;;;;;;;15.49;47.79;97426.84;226301;1254;22914;-74
2024/03/26 14:26:11;;;;;;;1.30;0.80;;;;;;;15.53;48.34;97420.83;226117;1252;22629;-74
2024/03/26 14:31:13;;;;;;;1.40;0.80;;;;;;;15.70;48.74;97406.39;226105;1254;25324;-75
2024/03/26 14:36:15;;;;;;;1.80;1.00;;;;;;;15.85;48.21;97398.30;226236;1251;22570;-74
2024/03/26 14:41:18;;;;;;;1.00;0.90;;;;;;;15.96;47.70;97391.93;226128;1254;277957;-76
2024/03/26 14:46:20;;;;;;;1.50;0.90;;;;;;;16.05;47.89;97389.21;226238;1261;22563;-82
2024/03/26 14:51:22;;;;;;;1.70;1.20;;;;;;;15.98;47.05;97380.23;226255;1251;24264;-77
2024/03/26 14:56:24;;;;;;;0.90;0.80;;;;;;;15.76;46.74;97368.05;226073;1272;22672;-76
2024/03/26 15:01:26;;;;;;;1.30;0.80;;;;;;;15.51;46.64;97370.23;226102;1267;22971;-75
2024/03/26 15:06:28;;;;;;;1.70;0.80;;;;;;;15.22;47.22;97369.86;225862;1274;22583;-75
2024/03/26 15:11:30;;;;;;;0.90;0.90;;;;;;;14.96;47.43;97371.30;225952;1257;22594;-77
2024/03/26 15:16:31;;;;;;;1.30;1.00;;;;;;;14.75;47.77;97364.97;226346;1269;22547;-77
2024/03/26 15:21:33;;;;;;;1.90;1.50;;;;;;;14.64;48.08;97366.06;226571;1272;23200;-77
2024/03/26 15:31:58;;;;;;;3.20;1.90;;;;;;;14.62;48.01;97365.67;226581;1274;22542;-76
2024/03/26 15:32:00;;;;;;;2.00;1.30;;;;;;;14.63;48.22;97356.16;226578;1270;23280;-73
2024/03/26 15:37:01;;;;;;;3.00;1.70;;;;;;;14.63;48.60;97353.34;226528;1267;27377;-73
2024/03/26 15:42:05;;;;;;;3.60;1.70;;;;;;;14.69;49.10;97345.48;226506;1273;22552;-74
2024/03/26 15:47:08;;;;;;;1.80;1.50;;;;;;;14.73;48.90;97341.01;226524;1270;22547;-72
2024/03/26 15:52:10;;;;;;;3.00;2.10;;;;;;;14.67;48.79;97334.63;226456;1274;22646;-74
2024/03/26 15:57:12;;;;;;;1.80;1.70;;;;;;;14.56;49.08;97331.25;226450;1256;22541;-73
2024/03/26 16:02:14;;;;;;;4.30;2.40;;;;;;;14.42;49.07;97331.47;226540;1274;22550;-72
2024/03/26 16:07:20;;;;;;;5.00;2.80;;;;;;;14.27;49.23;97328.70;226484;1271;24300;-73
2024/03/26 16:12:22;;;;;;;4.10;2.00;;;;;;;14.10;49.54;97333.27;226549;1270;22568;-73
2024/03/26 16:17:24;;;;;;;4.80;2.20;;;;;;;13.93;49.83;97329.86;226561;1274;22545;-73
2024/03/26 16:22:26;;;;;;;3.40;1.80;;;;;;;13.76;49.70;97335.83;226596;1267;22576;-73
2024/03/26 16:27:28;;;;;;;2.70;1.70;;;;;;;13.55;49.79;97334.35;226482;1274;22553;-73
2024/03/26 16:32:29;;;;;;;2.70;1.60;;;;;;;13.34;49.99;97327.48;226611;1274;22585;-73
2024/03/26 16:37:31;;;;;;;2.40;1.80;;;;;;;13.13;50.18;97334.71;226603;1272;22562;-73
2024/03/26 16:42:33;;;;;;;2.60;2.00;;;;;;;12.92;50.49;97332.38;226443;1273;22582;-73
2024/03/26 16:47:35;;;;;;;2.90;2.40;;;;;;;12.73;50.80;97327.10;226548;1271;23036;-73
2024/03/26 16:52:38;;;;;;;3.80;2.30;;;;;;;12.53;51.00;97323.96;226561;1269;22567;-73
2024/03/26 16:57:40;;;;;;;3.30;2.90;;;;;;;12.33;51.31;97328.08;226552;1270;22915;-72
2024/03/26 17:02:42;;;;;;;3.80;2.80;;;;;;;12.13;51.51;97320.69;226524;1273;22928;-72
2024/03/26 17:07:43;;;;;;;5.90;3.50;;;;;;;11.94;51.86;97313.18;226533;1274;22632;-72
2024/03/26 17:12:45;;;;;;;7.90;4.40;;;;;;;11.75;52.28;97317.36;226478;1270;22553;-73
2024/03/26 17:17:47;;;;;;;7.30;4.10;;;;;;;11.56;52.59;97316.45;226541;1270;22610;-74
2024/03/26 17:22:49;;;;;;;6.40;3.40;;;;;;;11.39;52.76;97313.48;226600;1267;22542;-74
2024/03/26 17:27:53;;;;;;;7.80;4.30;;;;;;;11.26;52.70;97307.24;226586;1269;23013;-74
2024/03/26 17:32:55;;;;;;;7.00;4.40;;;;;;;11.12;52.78;97310.34;226651;1273;22667;-74
2024/03/26 17:37:57;;;;;;;7.70;4.10;;;;;;;10.97;53.12;97310.29;226578;1267;22549;-74
2024/03/26 17:42:59;;;;;;;13.50;7.40;;;;;;;10.82;53.37;97307.01;226581;1273;22542;-74
2024/03/26 17:48:03;;;;;;;16.60;9.50;;;;;;;10.69;53.78;97310.79;226458;1272;22583;-73
2024/03/26 17:53:04;;;;;;;19.90;10.90;;;;;;;10.55;54.03;97306.59;226563;1273;22541;-74
2024/03/26 17:58:06;;;;;;;15.50;7.70;;;;;;;10.42;54.34;97310.65;226539;1274;22535;-74
2024/03/26 18:03:08;;;;;;;13.80;8.80;;;;;;;10.30;54.43;97306.99;226540;1270;22641;-75
2024/03/26 18:08:09;;;;;;;14.80;8.60;;;;;;;10.18;54.58;97306.77;226512;1272;22549;-74
2024/03/26 18:13:11;;;;;;;13.60;8.60;;;;;;;10.05;54.69;97309.29;226550;1270;22547;-72
2024/03/26 18:18:13;;;;;;;13.80;8.00;;;;;;;9.91;54.99;97309.94;226564;1267;23793;-73
2024/03/26 18:23:15;;;;;;;13.60;8.50;;;;;;;9.81;55.02;97309.75;226540;1272;22536;-73
2024/03/26 18:28:17;;;;;;;19.90;12.60;;;;;;;9.71;55.35;97306.86;226477;1273;22554;-73
2024/03/26 18:33:18;;;;;;;20.10;10.40;;;;;;;9.60;55.79;97309.48;226516;1268;22727;-73
2024/03/26 18:38:20;;;;;;;13.00;7.70;;;;;;;9.50;55.97;97306.34;226382;1254;22548;-73
2024/03/26 18:43:23;;;;;;;11.40;7.30;;;;;;;9.38;56.22;97306.28;226524;1270;22575;-75
2024/03/26 18:48:26;;;;;;;18.70;9.70;;;;;;;9.23;56.36;97302.53;226646;1269;23300;-74
2024/03/26 18:53:29;;;;;;;19.70;10.40;;;;;;;9.06;56.85;97300.88;226823;1267;22566;-73
2024/03/26 18:58:32;;;;;;;19.00;9.50;;;;;;;8.89;57.37;97300.40;226677;1274;22635;-73
2024/03/26 19:03:34;;;;;;;16.50;10.00;;;;;;;8.73;58.06;97302.65;226586;1268;22616;-73
2024/03/26 19:08:37;;;;;;;21.00;12.50;;;;;;;8.58;58.67;97298.45;226513;1274;22573;-73
2024/03/26 19:13:39;;;;;;;26.60;14.60;;;;;;;8.45;58.55;97295.28;226576;1273;22551;-73
2024/03/26 19:18:40;;;;;;;24.00;14.80;;;;;;;8.34;58.84;97293.19;226588;1269;22639;-73
2024/03/26 19:23:42;;;;;;;27.70;15.90;;;;;;;8.24;59.02;97288.67;226506;1266;22610;-74
2024/03/26 19:28:44;;;;;;;25.50;14.70;;;;;;;8.15;59.52;97284.66;226557;1268;22534;-74
2024/03/26 19:33:48;;;;;;;23.20;14.00;;;;;;;8.05;59.91;97279.00;226511;1270;22584;-74
2024/03/26 19:38:51;;;;;;;24.80;13.10;;;;;;;7.96;60.09;97279.02;226507;1270;22568;-71
2024/03/26 19:43:54;;;;;;;22.30;12.70;;;;;;;7.87;59.81;97280.98;226529;1268;22562;-73
2024/03/26 19:48:55;;;;;;;24.40;14.00;;;;;;;7.73;60.07;97277.75;226520;1271;22571;-72
2024/03/26 19:53:57;;;;;;;22.30;13.40;;;;;;;7.61;60.48;97273.14;226542;1270;22537;-73
2024/03/26 19:58:59;;;;;;;22.60;12.80;;;;;;;7.49;61.02;97274.69;226512;1271;22623;-73
2024/03/26 20:04:03;;;;;;;22.80;12.60;;;;;;;7.38;60.82;97274.23;226523;1269;22558;-73
2024/03/26 20:09:04;;;;;;;21.60;12.60;;;;;;;7.35;61.51;97262.07;226500;1268;22543;-72
2024/03/26 20:14:06;;;;;;;21.80;11.90;;;;;;;7.39;61.44;97257.50;226545;1274;22543;-73
2024/03/26 20:19:08;;;;;;;18.70;10.40;;;;;;;7.43;61.19;97254.29;226612;1269;24523;-73
2024/03/26 20:24:10;;;;;;;18.00;9.10;;;;;;;7.56;61.24;97250.63;226569;1266;22590;-73
2024/03/26 20:29:12;;;;;;;15.30;8.60;;;;;;;7.65;60.60;97247.52;226697;1262;22552;-73
2024/03/26 20:34:14;;;;;;;12.90;7.50;;;;;;;7.72;60.30;97243.53;226572;1271;22556;-71
2024/03/26 20:39:16;;;;;;;14.10;7.00;;;;;;;7.81;60.29;97241.28;226598;1274;22553;-73
2024/03/26 20:44:18;;;;;;;10.60;6.30;;;;;;;7.91;60.03;97238.52;226608;1270;22686;-73
2024/03/26 20:49:22;;;;;;;11.10;6.10;;;;;;;7.95;60.03;97236.61;226602;1262;22541;-72
2024/03/26 20:54:24;;;;;;;13.70;7.50;;;;;;;7.93;59.79;97232.33;226629;1272;22569;-72
2024/03/26 20:59:26;;;;;;;16.40;8.10;;;;;;;7.86;60.40;97229.81;226723;1271;22576;-72
2024/03/26 21:04:28;;;;;;;15.70;8.10;;;;;;;7.81;60.03;97219.28;226541;1271;22576;-72
2024/03/26 21:09:32;;;;;;;22.60;12.10;;;;;;;7.75;60.40;97217.35;226646;1268;25264;-73
2024/03/26 21:14:33;;;;;;;22.60;12.40;;;;;;;7.72;60.33;97219.55;226613;1274;22539;-72
2024/03/26 21:19:37;;;;;;;22.90;12.00;;;;;;;7.69;60.31;97215.48;226660;1269;22539;-73
2024/03/26 21:24:38;;;;;;;19.40;10.80;;;;;;;7.64;60.35;97214.52;226563;1271;22530;-73
2024/03/26 21:29:40;;;;;;;15.20;8.20;;;;;;;7.59;60.25;97212.04;226583;1268;22546;-72
2024/03/26 21:34:42;;;;;;;14.70;8.00;;;;;;;7.54;61.08;97219.17;226595;1272;22581;-72
2024/03/26 21:39:49;;;;;;;14.20;8.30;;;;;;;7.49;60.84;97220.64;226688;1274;22606;-72
2024/03/26 21:44:51;;;;;;;16.30;8.30;;;;;;;7.39;60.75;97214.57;226603;1274;22943;-73
2024/03/26 21:49:53;;;;;;;14.10;7.90;;;;;;;7.31;61.06;97210.58;226599;1274;22537;-72
2024/03/26 21:54:55;;;;;;;14.90;8.20;;;;;;;7.28;61.22;97201.33;226652;1268;22552;-73
2024/03/26 21:59:57;;;;;;;14.30;8.00;;;;;;;7.25;61.30;97202.48;226572;1268;22547;-73
2024/03/26 22:04:58;;;;;;;14.00;7.90;;;;;;;7.18;61.16;97203.63;226593;1274;22544;-71
2024/03/26 22:10:01;;;;;;;11.30;7.00;;;;;;;7.10;61.38;97199.92;226603;1270;22557;-72
2024/03/26 22:15:03;;;;;;;13.20;7.20;;;;;;;7.06;61.65;97196.21;226592;1271;22647;-71
2024/03/26 22:20:05;;;;;;;11.40;6.60;;;;;;;7.04;61.40;97193.75;226533;1272;22537;-71
2024/03/26 22:25:09;;;;;;;12.30;6.30;;;;;;;7.01;61.71;97193.73;226822;1274;22572;-71
2024/03/26 22:30:11;;;;;;;14.30;6.80;;;;;;;7.02;61.44;97191.23;226613;1274;23029;-72
2024/03/26 22:35:13;;;;;;;12.40;6.00;;;;;;;7.06;61.46;97185.47;226653;1251;22588;-73
2024/03/26 22:40:15;;;;;;;12.70;6.10;;;;;;;7.06;61.66;97184.90;226593;1270;22553;-73
2024/03/26 22:45:20;;;;;;;10.30;5.50;;;;;;;6.98;61.70;97183.42;226648;1272;22698;-72
2024/03/26 22:50:21;;;;;;;9.40;5.50;;;;;;;6.91;61.82;97181.69;226581;1270;22550;-73
2024/03/26 22:55:23;;;;;;;10.10;5.80;;;;;;;6.83;61.99;97179.19;226528;1269;25059;-73
2024/03/26 23:00:35;;;;;;;11.50;6.90;;;;;;;6.75;62.87;97170.84;226501;1274;22573;-73
2024/03/26 23:05:37;;;;;;;11.80;6.70;;;;;;;6.69;63.03;97164.83;226509;1271;22565;-73
2024/03/26 23:10:39;;;;;;;11.90;6.70;;;;;;;6.64;63.17;97160.64;226624;1271;23594;-73
2024/03/26 23:15:41;;;;;;;14.50;7.80;;;;;;;6.60;63.54;97155.11;226583;1270;25883;-73
2024/03/26 23:20:43;;;;;;;13.60;7.80;;;;;;;6.56;63.92;97143.15;226624;1270;22532;-72